Time;durP1;ratioP1;P1;durP2;ratioP2;P2;SDS_P1;SDS_P2;PMS_P1;PMS_P2;Temp;Humidity;BMP_temperature;BMP_pressure;BME280_temperature;BME280_humidity;BME280_pressure;Samples;Min_cycle;Max_cycle;Signal;HPM_P1;HPM_P2
2022/05/15 00:01:02;;;;;;;26.30;8.07;;;13.10;99.90;;;;;;5097348;28;20046;-76
2022/05/15 00:03:28;;;;;;;25.48;7.60;;;13.10;99.90;;;;;;5094605;28;20047;-76
2022/05/15 00:05:57;;;;;;;20.52;7.18;;;13.10;99.90;;;;;;5088471;28;20097;-76
2022/05/15 00:08:24;;;;;;;23.98;7.35;;;13.10;99.90;;;;;;5089341;28;20386;-76
2022/05/15 00:10:51;;;;;;;27.60;8.25;;;13.00;99.90;;;;;;5086207;28;20153;-76
2022/05/15 00:13:18;;;;;;;22.27;8.35;;;13.00;99.90;;;;;;5091001;28;20051;-76
2022/05/15 00:15:44;;;;;;;24.40;7.97;;;13.00;99.90;;;;;;5090796;28;20044;-76
2022/05/15 00:18:11;;;;;;;24.52;8.07;;;12.90;99.90;;;;;;5099886;28;20040;-76
2022/05/15 00:20:39;;;;;;;26.42;8.57;;;12.90;99.90;;;;;;5077959;28;20082;-76
2022/05/15 00:23:05;;;;;;;24.27;8.00;;;12.90;99.90;;;;;;5088745;28;20085;-76
2022/05/15 00:25:31;;;;;;;29.67;9.35;;;12.80;99.90;;;;;;5085863;28;20044;-76
2022/05/15 00:27:58;;;;;;;25.40;8.35;;;12.80;99.90;;;;;;5088051;28;20047;-76
2022/05/15 00:30:23;;;;;;;24.45;8.80;;;12.80;99.90;;;;;;5085483;28;20070;-76
2022/05/15 00:32:50;;;;;;;24.92;8.60;;;12.70;99.90;;;;;;5109956;28;20039;-75
2022/05/15 00:35:16;;;;;;;26.42;8.05;;;12.70;99.90;;;;;;5099331;28;20039;-75
2022/05/15 00:37:41;;;;;;;23.65;7.80;;;12.70;99.90;;;;;;5111290;28;20449;-75
2022/05/15 00:40:08;;;;;;;21.73;8.02;;;12.70;99.90;;;;;;5083191;28;20065;-76
2022/05/15 00:42:35;;;;;;;25.77;7.82;;;12.60;99.90;;;;;;5094249;28;20386;-76
2022/05/15 00:45:02;;;;;;;22.83;6.97;;;12.60;99.90;;;;;;5088562;28;20372;-77
2022/05/15 00:47:31;;;;;;;28.05;9.07;;;12.60;99.90;;;;;;5087975;28;20028;-76
2022/05/15 00:49:57;;;;;;;24.35;8.00;;;12.60;99.90;;;;;;5096042;28;20058;-77
2022/05/15 00:52:26;;;;;;;27.08;7.78;;;12.50;99.90;;;;;;5078249;28;20072;-76
2022/05/15 00:54:57;;;;;;;20.73;8.18;;;12.50;99.90;;;;;;5082891;28;20043;-77
2022/05/15 00:57:29;;;;;;;22.23;6.88;;;12.40;99.90;;;;;;5086125;28;20048;-76
2022/05/15 01:00:05;;;;;;;21.48;7.78;;;12.30;99.90;;;;;;5084218;28;20391;-77
2022/05/15 01:02:35;;;;;;;23.38;7.63;;;12.10;99.90;;;;;;5085554;28;20044;-76
2022/05/15 01:05:02;;;;;;;18.95;7.05;;;12.00;99.90;;;;;;5088064;28;20036;-76
2022/05/15 01:07:28;;;;;;;22.55;7.75;;;11.90;99.90;;;;;;5072161;28;20054;-76
2022/05/15 01:09:53;;;;;;;24.58;8.32;;;11.90;99.90;;;;;;5087616;28;20376;-76
2022/05/15 01:12:20;;;;;;;26.00;8.20;;;11.90;99.90;;;;;;5080597;28;20384;-76
2022/05/15 01:14:48;;;;;;;27.77;7.72;;;11.90;99.90;;;;;;5089283;28;20044;-76
2022/05/15 01:17:14;;;;;;;20.58;8.15;;;11.90;99.90;;;;;;5087451;28;20040;-76
2022/05/15 01:19:41;;;;;;;24.63;7.65;;;11.80;99.90;;;;;;5094299;28;20041;-76
2022/05/15 01:22:08;;;;;;;26.02;7.65;;;11.80;99.90;;;;;;5083360;28;20040;-76
2022/05/15 01:24:34;;;;;;;;;;;11.80;99.90;;;;;;5086015;28;20444;-76
2022/05/15 01:27:04;;;;;;;26.98;8.00;;;11.70;99.90;;;;;;5085712;28;20272;-76
2022/05/15 01:29:32;;;;;;;25.92;7.97;;;11.70;99.90;;;;;;5085435;28;20492;-76
2022/05/15 01:31:59;;;;;;;20.88;8.18;;;11.70;99.90;;;;;;5086918;28;20047;-75
2022/05/15 01:34:25;;;;;;;24.05;8.75;;;11.70;99.90;;;;;;5090918;28;20044;-75
2022/05/15 01:36:52;;;;;;;29.00;8.68;;;11.70;99.90;;;;;;5098832;28;20036;-75
2022/05/15 01:39:18;;;;;;;23.80;8.35;;;11.70;99.90;;;;;;5093663;28;20048;-75
2022/05/15 01:41:43;;;;;;;26.08;8.48;;;11.70;99.90;;;;;;5091458;28;20127;-75
2022/05/15 01:44:09;;;;;;;22.60;7.90;;;11.80;99.90;;;;;;5094295;28;20039;-75
2022/05/15 01:46:35;;;;;;;19.33;7.85;;;11.70;99.90;;;;;;5090875;28;20043;-75
2022/05/15 01:49:06;;;;;;;23.80;8.07;;;11.70;99.90;;;;;;5085775;28;20037;-75
2022/05/15 01:51:37;;;;;;;24.55;8.13;;;11.70;99.90;;;;;;5093412;28;20071;-75
2022/05/15 01:54:06;;;;;;;25.48;8.70;;;11.70;99.90;;;;;;5093602;28;20051;-75
2022/05/15 01:56:31;;;;;;;20.98;8.05;;;11.60;99.90;;;;;;5084210;28;20063;-75
2022/05/15 01:58:57;;;;;;;23.60;9.10;;;11.70;99.90;;;;;;5090385;28;20474;-75
2022/05/15 02:01:24;;;;;;;24.17;7.55;;;11.70;99.90;;;;;;5083885;28;20050;-75
2022/05/15 02:03:49;;;;;;;20.73;7.57;;;11.70;99.90;;;;;;5085746;28;20492;-77
2022/05/15 02:06:16;;;;;;;22.95;7.50;;;11.60;99.90;;;;;;5084084;28;20305;-76
2022/05/15 02:08:42;;;;;;;21.08;7.40;;;11.60;99.90;;;;;;5089381;28;20071;-76
2022/05/15 02:11:11;;;;;;;21.92;7.50;;;11.60;99.90;;;;;;5086121;28;20048;-77
2022/05/15 02:13:37;;;;;;;26.92;8.05;;;11.50;99.90;;;;;;5086106;28;20119;-76
2022/05/15 02:16:03;;;;;;;24.33;8.63;;;11.50;99.90;;;;;;5087823;28;20526;-77
2022/05/15 02:18:29;;;;;;;22.23;7.85;;;11.50;99.90;;;;;;5087814;28;20048;-76
2022/05/15 02:20:54;;;;;;;24.85;8.38;;;11.50;99.90;;;;;;5089633;28;20036;-76
2022/05/15 02:23:21;;;;;;;26.17;8.63;;;11.50;99.90;;;;;;5086833;28;20514;-76
2022/05/15 02:25:47;;;;;;;26.30;8.50;;;11.50;99.90;;;;;;5088317;28;20725;-76
2022/05/15 02:28:15;;;;;;;21.17;8.02;;;11.50;99.90;;;;;;5093526;28;20043;-77
2022/05/15 02:30:41;;;;;;;30.52;8.90;;;11.50;99.90;;;;;;5099244;28;20498;-76
2022/05/15 02:33:07;;;;;;;24.45;8.68;;;11.50;99.90;;;;;;5087855;28;20048;-76
2022/05/15 02:35:33;;;;;;;21.30;7.63;;;11.50;99.90;;;;;;5086681;28;20055;-76
2022/05/15 02:37:59;;;;;;;23.75;8.50;;;11.50;99.90;;;;;;5086129;28;20068;-76
2022/05/15 02:40:25;;;;;;;25.98;8.32;;;11.50;99.90;;;;;;5089486;28;20507;-76
2022/05/15 02:42:54;;;;;;;31.08;9.32;;;11.50;99.90;;;;;;5100619;28;20148;-76
2022/05/15 02:45:20;;;;;;;24.88;7.97;;;11.50;99.90;;;;;;5083640;28;20044;-76
2022/05/15 02:47:46;;;;;;;22.58;9.05;;;11.50;99.90;;;;;;5087601;28;20048;-76
2022/05/15 02:52:56;;;;;;;21.75;9.10;;;11.50;99.90;;;;;;5046446;28;1091115;-77
2022/05/15 02:55:23;;;;;;;25.00;8.50;;;11.50;99.90;;;;;;5089228;28;20155;-76
2022/05/15 02:57:50;;;;;;;23.42;8.63;;;11.40;99.90;;;;;;5088049;28;20472;-77
2022/05/15 03:00:17;;;;;;;25.25;9.27;;;11.40;99.90;;;;;;5088275;28;20131;-77
2022/05/15 03:02:42;;;;;;;27.77;9.30;;;11.30;99.90;;;;;;5101397;28;20483;-76
2022/05/15 03:05:10;;;;;;;27.33;8.70;;;11.30;99.90;;;;;;5092092;28;20047;-76
2022/05/15 03:07:37;;;;;;;24.13;8.55;;;11.30;99.90;;;;;;5092063;28;20067;-76
2022/05/15 03:10:04;;;;;;;24.55;8.55;;;11.30;99.90;;;;;;5083875;28;20048;-76
2022/05/15 03:12:30;;;;;;;24.27;9.13;;;11.30;99.90;;;;;;5091847;28;20460;-77
2022/05/15 03:14:56;;;;;;;23.83;9.10;;;11.30;99.90;;;;;;5089839;28;20036;-76
2022/05/15 03:17:24;;;;;;;20.75;8.57;;;11.20;99.90;;;;;;5089881;28;20044;-76
2022/05/15 03:19:51;;;;;;;24.45;8.65;;;11.30;99.90;;;;;;5089798;28;20146;-77
2022/05/15 03:22:16;;;;;;;23.92;8.93;;;11.30;99.90;;;;;;5091008;28;20071;-76
2022/05/15 03:24:42;;;;;;;27.52;9.13;;;11.20;99.90;;;;;;5107254;28;20426;-77
2022/05/15 03:27:11;;;;;;;24.02;9.00;;;11.20;99.90;;;;;;5091682;28;20071;-76
2022/05/15 03:29:36;;;;;;;20.15;8.60;;;11.10;99.90;;;;;;5089648;28;20043;-75
2022/05/15 03:32:02;;;;;;;22.45;9.43;;;11.10;99.90;;;;;;5089984;28;20048;-76
2022/05/15 03:34:27;;;;;;;20.15;8.65;;;11.10;99.90;;;;;;5090483;28;20028;-76
2022/05/15 03:36:53;;;;;;;23.30;9.32;;;11.00;99.90;;;;;;5094193;28;20032;-76
2022/05/15 03:39:21;;;;;;;23.92;9.07;;;11.00;99.90;;;;;;5090466;28;20036;-76
2022/05/15 03:41:48;;;;;;;22.30;9.50;;;11.00;99.90;;;;;;5096788;28;20040;-76
2022/05/15 03:44:14;;;;;;;;;;;11.00;99.90;;;;;;5093752;28;20043;-76
2022/05/15 03:46:40;;;;;;;28.45;10.02;;;10.90;99.90;;;;;;5089807;28;20395;-76
2022/05/15 03:49:06;;;;;;;26.35;9.65;;;10.90;99.90;;;;;;5089238;28;20602;-76
2022/05/15 03:51:33;;;;;;;28.90;10.40;;;11.00;99.90;;;;;;5087636;28;20046;-76
2022/05/15 03:53:59;;;;;;;24.55;9.70;;;11.00;99.90;;;;;;5090619;28;20494;-76
2022/05/15 03:59:10;;;;;;;25.05;9.15;;;11.00;99.90;;;;;;5089645;28;20048;-76
2022/05/15 04:01:36;;;;;;;28.70;10.07;;;10.90;99.90;;;;;;5086882;28;20058;-76
2022/05/15 04:04:01;;;;;;;24.77;10.43;;;10.90;99.90;;;;;;5090200;28;20828;-76
2022/05/15 04:06:28;;;;;;;25.10;10.50;;;10.90;99.90;;;;;;5090380;28;20470;-75
2022/05/15 04:08:53;;;;;;;25.67;9.85;;;11.00;99.90;;;;;;5089334;28;20048;-75
2022/05/15 04:11:19;;;;;;;23.70;10.18;;;11.00;99.90;;;;;;5087045;28;20048;-75
2022/05/15 04:13:45;;;;;;;26.65;9.88;;;11.00;99.90;;;;;;5089988;28;20062;-75
2022/05/15 04:16:13;;;;;;;22.77;9.80;;;11.00;99.90;;;;;;5087605;28;20079;-76
2022/05/15 04:18:39;;;;;;;25.88;9.80;;;11.00;99.90;;;;;;5102911;28;20086;-75
2022/05/15 04:21:05;;;;;;;27.65;10.05;;;11.00;99.90;;;;;;5104954;28;20051;-76
2022/05/15 04:23:31;;;;;;;26.10;9.98;;;11.00;99.90;;;;;;5084317;28;20078;-76
2022/05/15 04:25:56;;;;;;;25.55;9.95;;;11.00;99.90;;;;;;5092539;28;20415;-75
2022/05/15 04:28:26;;;;;;;21.30;9.20;;;11.10;99.90;;;;;;5089009;28;20054;-76
2022/05/15 04:30:52;;;;;;;28.85;10.18;;;11.10;99.90;;;;;;5089924;28;20040;-76
2022/05/15 04:33:17;;;;;;;23.27;9.25;;;11.10;99.90;;;;;;5088804;28;20059;-76
2022/05/15 04:35:43;;;;;;;23.10;9.55;;;11.20;99.90;;;;;;5090833;28;20487;-76
2022/05/15 04:38:10;;;;;;;25.58;10.25;;;11.20;99.90;;;;;;5086597;28;20051;-76
2022/05/15 04:40:36;;;;;;;25.90;9.40;;;11.30;99.90;;;;;;5090048;28;20036;-76
2022/05/15 04:43:01;;;;;;;27.27;9.48;;;11.30;99.90;;;;;;5087472;28;20047;-75
2022/05/15 04:45:27;;;;;;;24.02;9.35;;;11.40;99.90;;;;;;5088887;28;20040;-76
2022/05/15 04:47:53;;;;;;;24.05;9.55;;;11.30;99.90;;;;;;5092232;28;20047;-77
2022/05/15 04:50:19;;;;;;;25.80;9.18;;;11.40;99.90;;;;;;5090376;28;20488;-76
2022/05/15 04:52:45;;;;;;;24.65;9.23;;;11.40;99.90;;;;;;5090581;28;20066;-76
2022/05/15 04:55:12;;;;;;;21.90;9.65;;;11.40;99.90;;;;;;5088438;28;20452;-76
2022/05/15 04:57:38;;;;;;;25.88;9.77;;;11.50;99.90;;;;;;5101743;28;20794;-76
2022/05/15 05:00:14;;;;;;;24.90;9.30;;;11.50;99.90;;;;;;5093980;28;20044;-76
2022/05/15 05:02:39;;;;;;;27.20;9.95;;;11.60;99.90;;;;;;5099725;28;20433;-76
2022/05/15 05:05:06;;;;;;;25.10;10.00;;;11.60;99.90;;;;;;5125594;28;20065;-75
2022/05/15 05:07:32;;;;;;;27.38;9.90;;;11.70;99.90;;;;;;5107139;28;20127;-74
2022/05/15 05:09:57;;;;;;;28.05;10.15;;;11.70;99.90;;;;;;5110553;28;20079;-77
2022/05/15 05:12:24;;;;;;;25.80;10.20;;;11.70;99.90;;;;;;5089995;28;20051;-76
2022/05/15 05:14:49;;;;;;;25.90;9.57;;;11.80;99.90;;;;;;5077115;28;20539;-76
2022/05/15 05:17:16;;;;;;;26.95;9.98;;;11.80;99.90;;;;;;5089811;28;20048;-76
2022/05/15 05:19:42;;;;;;;23.45;10.02;;;11.90;99.90;;;;;;5107207;27;20043;-77
2022/05/15 05:22:08;;;;;;;22.80;9.00;;;11.90;99.90;;;;;;5087579;28;20040;-76
2022/05/15 05:24:33;;;;;;;24.73;9.23;;;12.00;99.90;;;;;;5088970;28;20720;-76
2022/05/15 05:26:59;;;;;;;27.48;10.48;;;12.00;99.90;;;;;;5084763;28;20067;-76
2022/05/15 05:29:25;;;;;;;23.35;9.65;;;12.10;99.90;;;;;;5088552;28;20036;-76
2022/05/15 05:31:51;;;;;;;25.70;10.38;;;12.10;99.90;;;;;;5097489;28;20063;-76
2022/05/15 05:34:16;;;;;;;26.85;10.40;;;12.20;99.90;;;;;;5089541;28;20036;-76
2022/05/15 05:36:42;;;;;;;28.35;9.95;;;12.30;99.90;;;;;;5094652;28;20048;-76
2022/05/15 05:39:08;;;;;;;23.13;10.10;;;12.40;99.90;;;;;;5088829;28;20051;-76
2022/05/15 05:41:33;;;;;;;29.25;9.60;;;12.50;99.90;;;;;;5087501;28;20044;-76
2022/05/15 05:44:00;;;;;;;26.88;10.10;;;12.60;99.90;;;;;;5086310;28;20044;-76
2022/05/15 05:46:27;;;;;;;24.52;9.93;;;12.60;99.90;;;;;;5092691;28;20091;-76
2022/05/15 05:48:53;;;;;;;24.67;10.32;;;12.70;99.90;;;;;;5087635;28;20036;-79
2022/05/15 05:51:19;;;;;;;24.35;9.02;;;12.70;99.90;;;;;;5088907;28;20047;-74
2022/05/15 05:53:44;;;;;;;20.42;8.65;;;12.80;99.90;;;;;;5088307;28;20052;-77
2022/05/15 05:56:10;;;;;;;26.25;8.85;;;12.90;99.90;;;;;;5086384;28;20040;-77
2022/05/15 05:58:37;;;;;;;22.98;8.85;;;12.90;99.90;;;;;;5082509;28;20067;-77
2022/05/15 06:01:03;;;;;;;22.38;8.95;;;13.00;99.90;;;;;;5101600;28;20031;-76
2022/05/15 06:06:14;;;;;;;22.25;8.43;;;13.20;99.90;;;;;;5109195;28;20511;-79
2022/05/15 06:08:40;;;;;;;22.00;7.90;;;13.30;99.90;;;;;;5097052;28;20089;-75
2022/05/15 06:11:05;;;;;;;21.70;8.20;;;13.30;99.90;;;;;;5103857;28;20089;-75
2022/05/15 06:13:32;;;;;;;19.13;8.20;;;13.40;99.90;;;;;;5103242;28;20036;-76
2022/05/15 06:15:58;;;;;;;21.35;7.88;;;13.50;99.90;;;;;;5104974;28;20040;-75
2022/05/15 06:18:24;;;;;;;18.83;7.72;;;13.60;99.90;;;;;;5093469;28;20075;-76
2022/05/15 06:20:49;;;;;;;20.80;8.52;;;13.70;99.90;;;;;;5109001;28;20103;-76
2022/05/15 06:23:15;;;;;;;23.10;8.15;;;13.80;99.90;;;;;;5094300;28;20052;-75
2022/05/15 06:25:40;;;;;;;18.90;7.45;;;13.90;99.90;;;;;;5111827;28;20043;-75
2022/05/15 06:28:06;;;;;;;18.88;6.63;;;14.00;99.90;;;;;;5104416;28;20048;-77
2022/05/15 06:30:32;;;;;;;16.27;6.70;;;14.10;99.90;;;;;;5107650;28;20039;-76
2022/05/15 06:32:59;;;;;;;19.73;6.93;;;14.20;99.90;;;;;;5102552;28;20059;-76
2022/05/15 06:35:24;;;;;;;17.85;6.38;;;14.20;99.90;;;;;;5099335;28;20051;-76
2022/05/15 06:37:50;;;;;;;14.82;6.05;;;14.40;99.90;;;;;;5110664;28;20439;-75
2022/05/15 06:40:16;;;;;;;19.25;6.95;;;14.40;99.90;;;;;;5099040;28;20170;-76
2022/05/15 06:42:42;;;;;;;16.70;6.35;;;14.60;99.90;;;;;;5093704;28;20032;-76
2022/05/15 06:45:08;;;;;;;19.52;6.75;;;14.70;99.90;;;;;;5096987;28;20039;-76
2022/05/15 06:47:34;;;;;;;19.70;6.72;;;14.80;99.90;;;;;;5095663;28;20044;-84
2022/05/15 06:50:00;;;;;;;17.42;5.75;;;14.90;99.90;;;;;;5098222;28;20118;-88
2022/05/15 06:52:27;;;;;;;20.02;6.30;;;14.90;99.90;;;;;;5094367;28;20722;-84
2022/05/15 06:54:53;;;;;;;14.93;6.15;;;15.10;99.90;;;;;;5092870;28;20047;-76
2022/05/15 06:57:34;;;;;;;19.60;6.35;;;15.10;99.90;;;;;;5092687;28;20525;-78
2022/05/15 07:00:11;;;;;;;17.98;5.93;;;15.20;99.90;;;;;;5082705;28;20041;-80
2022/05/15 07:02:37;;;;;;;15.82;5.85;;;15.30;99.90;;;;;;5080169;28;20497;-77
2022/05/15 07:05:04;;;;;;;15.32;5.45;;;15.40;99.90;;;;;;5090834;28;20111;-77
2022/05/15 07:07:30;;;;;;;19.92;5.82;;;15.50;99.90;;;;;;5095688;28;20054;-78
2022/05/15 07:09:56;;;;;;;14.05;5.05;;;15.60;99.90;;;;;;5098532;28;20050;-79
2022/05/15 07:12:23;;;;;;;15.77;5.70;;;15.70;99.90;;;;;;5106327;28;20547;-78
2022/05/15 07:14:49;;;;;;;16.98;5.40;;;15.80;99.90;;;;;;5111789;28;20498;-79
2022/05/15 07:17:15;;;;;;;17.60;5.80;;;15.90;99.90;;;;;;5090255;28;20044;-77
2022/05/15 07:19:40;;;;;;;19.40;5.43;;;15.90;99.90;;;;;;5089910;28;20870;-79
2022/05/15 07:22:06;;;;;;;15.25;5.07;;;16.00;99.90;;;;;;5101158;28;20058;-79
2022/05/15 07:24:31;;;;;;;16.77;5.40;;;16.10;99.90;;;;;;5093220;28;20036;-77
2022/05/15 07:26:57;;;;;;;17.05;5.68;;;16.20;99.90;;;;;;5091687;28;20074;-77
2022/05/15 07:29:24;;;;;;;19.10;5.50;;;16.20;99.90;;;;;;5090348;28;20039;-78
2022/05/15 07:31:51;;;;;;;15.15;5.15;;;16.40;99.90;;;;;;5091187;28;20498;-78
2022/05/15 07:34:18;;;;;;;18.90;5.40;;;16.40;99.90;;;;;;5092918;28;20036;-78
2022/05/15 07:36:44;;;;;;;17.38;5.60;;;16.50;99.90;;;;;;5099051;28;20039;-76
2022/05/15 07:39:10;;;;;;;16.85;4.95;;;16.60;99.90;;;;;;5090813;28;20384;-76
2022/05/15 07:41:36;;;;;;;14.98;4.65;;;16.70;99.90;;;;;;5084510;28;20066;-76
2022/05/15 07:44:05;;;;;;;18.25;5.10;;;16.80;99.90;;;;;;5097961;28;20036;-76
2022/05/15 07:46:30;;;;;;;16.35;4.93;;;16.90;99.90;;;;;;5089530;28;20047;-77
2022/05/15 07:48:56;;;;;;;15.30;5.43;;;17.00;99.90;;;;;;5087717;28;20040;-76
2022/05/15 07:51:22;;;;;;;20.42;5.53;;;17.10;99.90;;;;;;5102057;28;20048;-76
2022/05/15 07:53:47;;;;;;;15.85;4.95;;;17.00;99.90;;;;;;5100859;28;20052;-76
2022/05/15 07:56:16;;;;;;;16.35;4.78;;;17.20;99.90;;;;;;5102990;28;20506;-77
2022/05/15 07:58:43;;;;;;;21.15;5.90;;;17.30;99.90;;;;;;5083840;28;20071;-76
2022/05/15 08:01:08;;;;;;;21.02;5.40;;;17.40;99.90;;;;;;5078106;28;20048;-76
2022/05/15 08:03:43;;;;;;;20.58;5.97;;;17.50;99.90;;;;;;5094722;28;20374;-76
2022/05/15 08:08:58;;;;;;;17.05;5.10;;;17.60;99.90;;;;;;5094308;28;20112;-76
2022/05/15 08:11:28;;;;;;;19.57;5.50;;;17.70;99.90;;;;;;5089809;28;20627;-77
2022/05/15 08:13:54;;;;;;;17.77;4.93;;;17.80;99.90;;;;;;5085821;28;20071;-77
2022/05/15 08:16:20;;;;;;;16.52;5.28;;;17.90;99.90;;;;;;5100960;28;20043;-77
2022/05/15 08:24:17;;;;;;;19.60;4.78;;;18.30;99.90;;;;;;5087154;28;20052;-77
2022/05/15 08:26:45;;;;;;;20.02;5.18;;;18.30;99.90;;;;;;5097953;28;20054;-76
2022/05/15 08:29:11;;;;;;;18.17;4.43;;;18.40;99.90;;;;;;5099989;28;20079;-76
2022/05/15 08:31:38;;;;;;;18.60;5.25;;;18.40;99.90;;;;;;5086026;28;20505;-76
2022/05/15 08:34:04;;;;;;;16.95;4.13;;;18.50;99.90;;;;;;5067977;28;20084;-76
2022/05/15 08:36:29;;;;;;;16.77;5.05;;;18.60;99.90;;;;;;5068282;28;20033;-76
2022/05/15 08:38:55;;;;;;;16.98;4.93;;;18.60;99.90;;;;;;5056433;28;20048;-76
2022/05/15 08:41:42;;;;;;;18.27;5.40;;;18.70;99.90;;;;;;5094617;28;20412;-76
2022/05/15 08:44:21;;;;;;;18.20;4.85;;;18.70;99.90;;;;;;5108959;28;20078;-76
2022/05/15 08:46:52;;;;;;;16.73;5.00;;;18.80;99.90;;;;;;5109623;28;20123;-75
2022/05/15 08:49:34;;;;;;;19.05;5.32;;;18.90;99.90;;;;;;5103877;28;20044;-75
2022/05/15 08:52:17;;;;;;;16.10;4.80;;;18.90;99.90;;;;;;5088666;28;20044;-75
2022/05/15 08:54:54;;;;;;;18.23;5.47;;;19.10;99.90;;;;;;5108065;28;20050;-75
2022/05/15 08:57:48;;;;;;;19.70;5.43;;;19.10;99.90;;;;;;5104406;28;20047;-75
2022/05/15 09:00:19;;;;;;;17.38;4.60;;;19.20;99.90;;;;;;5061505;28;20101;-76
2022/05/15 09:02:45;;;;;;;17.77;5.03;;;19.30;99.90;;;;;;5108254;28;20047;-76
2022/05/15 09:05:13;;;;;;;17.70;4.85;;;19.40;99.20;;;;;;5104450;28;20581;-76
2022/05/15 09:08:00;;;;;;;19.63;5.07;;;19.50;99.50;;;;;;5085601;28;20048;-79
2022/05/15 09:10:28;;;;;;;;;;;19.60;99.80;;;;;;5082105;28;20048;-76
2022/05/15 09:13:05;;;;;;;15.90;4.85;;;19.70;99.90;;;;;;5086804;28;19920;-76
2022/05/15 09:15:31;;;;;;;16.88;5.22;;;19.70;99.20;;;;;;5088886;28;20115;-76
2022/05/15 09:18:04;;;;;;;19.85;5.25;;;19.90;98.30;;;;;;5088281;28;20513;-73
2022/05/15 09:20:48;;;;;;;20.20;5.15;;;19.90;96.80;;;;;;5097059;28;20040;-76
2022/05/15 09:23:34;;;;;;;18.50;5.03;;;20.00;97.10;;;;;;5105008;28;20056;-75
2022/05/15 09:26:25;;;;;;;15.73;5.03;;;20.00;96.00;;;;;;5068737;28;20041;-75
2022/05/15 09:29:00;;;;;;;19.33;5.03;;;20.10;95.70;;;;;;5078476;28;20037;-75
2022/05/15 09:31:29;;;;;;;17.73;5.68;;;20.10;95.50;;;;;;5084689;28;20068;-76
2022/05/15 09:34:07;;;;;;;16.00;4.97;;;20.30;97.00;;;;;;5101959;28;20040;-75
2022/05/15 09:36:36;;;;;;;19.88;5.22;;;20.30;94.80;;;;;;5092320;28;20488;-75
2022/05/15 09:39:23;;;;;;;20.60;4.72;;;20.40;94.60;;;;;;5090660;28;20040;-74
2022/05/15 09:44:47;;;;;;;18.25;5.60;;;20.50;92.30;;;;;;5077815;28;20086;-76
2022/05/15 09:47:20;;;;;;;15.07;5.15;;;20.60;91.90;;;;;;5101030;28;20055;-76
2022/05/15 09:49:47;;;;;;;16.83;4.72;;;20.60;91.30;;;;;;5089256;28;20051;-75
2022/05/15 09:52:36;;;;;;;18.80;4.75;;;20.70;93.20;;;;;;5099954;28;20076;-74
2022/05/15 09:55:24;;;;;;;18.38;5.40;;;20.80;93.30;;;;;;5087894;28;20118;-76
2022/05/15 09:57:55;;;;;;;16.52;4.88;;;20.90;92.80;;;;;;5107532;28;20061;-76
2022/05/15 10:00:23;;;;;;;19.17;5.55;;;21.00;92.40;;;;;;5089530;28;20055;-75
2022/05/15 10:02:53;;;;;;;17.13;5.20;;;21.00;87.40;;;;;;5094474;28;20040;-74
2022/05/15 10:05:24;;;;;;;17.27;5.35;;;21.10;92.80;;;;;;5089337;28;20043;-75
2022/05/15 10:08:10;;;;;;;14.82;5.00;;;21.20;92.10;;;;;;5089494;28;20135;-73
2022/05/15 10:10:53;;;;;;;16.38;4.88;;;21.20;84.30;;;;;;5114878;27;20543;-75
2022/05/15 10:13:38;;;;;;;16.67;4.30;;;21.20;83.50;;;;;;5110156;28;20054;-76
2022/05/15 10:16:27;;;;;;;18.25;4.82;;;21.30;87.60;;;;;;5094241;28;20231;-75
2022/05/15 10:19:04;;;;;;;16.17;4.57;;;21.40;79.80;;;;;;5093652;28;20122;-75
2022/05/15 10:21:40;;;;;;;17.67;5.95;;;21.40;82.50;;;;;;5100255;28;20049;-74
2022/05/15 10:24:21;;;;;;;16.70;4.80;;;21.40;75.90;;;;;;5089338;28;20504;-75
2022/05/15 10:27:10;;;;;;;19.08;5.07;;;21.40;77.40;;;;;;5090945;28;20052;-76
2022/05/15 10:29:57;;;;;;;18.45;4.90;;;21.40;77.00;;;;;;5097636;28;20043;-78
2022/05/15 10:32:38;;;;;;;19.73;5.55;;;21.40;74.80;;;;;;5072074;28;20040;-73
2022/05/15 10:35:05;;;;;;;21.05;5.10;;;21.60;82.30;;;;;;5074889;28;20036;-75
2022/05/15 10:37:49;;;;;;;19.75;5.07;;;21.60;76.70;;;;;;5088780;28;20052;-77
2022/05/15 10:40:29;;;;;;;18.40;4.65;;;21.70;69.60;;;;;;5088397;28;20048;-78
2022/05/15 10:43:29;;;;;;;14.15;4.28;;;21.60;62.80;;;;;;5100443;28;20051;-78
2022/05/15 10:45:58;;;;;;;18.00;5.15;;;21.60;62.10;;;;;;5090562;28;20044;-78
2022/05/15 10:48:41;;;;;;;17.77;4.95;;;21.60;66.50;;;;;;5086854;28;20079;-78
2022/05/15 10:51:16;;;;;;;16.15;4.63;;;21.70;67.30;;;;;;5071345;28;20450;-79
2022/05/15 11:00:00;;;;;;;13.07;4.53;;;21.90;65.70;;;;;;5082748;28;20561;-79
2022/05/15 11:02:35;;;;;;;15.57;4.68;;;22.00;63.90;;;;;;5039397;28;20064;-78
2022/05/15 11:05:11;;;;;;;15.80;4.45;;;22.00;62.40;;;;;;5089127;28;20416;-78
2022/05/15 11:07:48;;;;;;;15.15;5.05;;;22.10;58.80;;;;;;5090087;28;20063;-78
2022/05/15 11:10:20;;;;;;;17.90;4.82;;;22.10;57.50;;;;;;5106075;28;20039;-79
2022/05/15 11:12:59;;;;;;;15.50;4.78;;;22.20;55.40;;;;;;5110406;28;20522;-78
2022/05/15 11:15:39;;;;;;;14.52;4.57;;;22.30;55.10;;;;;;5112613;28;20165;-79
2022/05/15 11:18:15;;;;;;;13.50;4.78;;;22.30;56.10;;;;;;5111064;28;20576;-79
2022/05/15 11:20:46;;;;;;;14.70;4.57;;;22.30;60.90;;;;;;5088529;28;20040;-79
2022/05/15 11:23:19;;;;;;;12.57;4.45;;;22.40;61.60;;;;;;5090213;28;20036;-78
2022/05/15 11:26:07;;;;;;;12.95;4.60;;;22.50;62.00;;;;;;5091094;28;20039;-79
2022/05/15 11:28:44;;;;;;;20.10;4.93;;;22.60;57.00;;;;;;5091285;28;20654;-78
2022/05/15 11:31:18;;;;;;;16.58;4.57;;;22.70;55.10;;;;;;5097469;28;20122;-79
2022/05/15 11:33:49;;;;;;;15.70;4.20;;;22.60;54.10;;;;;;5111137;28;20055;-79
2022/05/15 11:36:29;;;;;;;16.88;4.63;;;22.60;53.00;;;;;;5111417;28;20124;-78
2022/05/15 11:38:55;;;;;;;12.38;4.00;;;22.70;54.40;;;;;;5110577;28;20051;-78
2022/05/15 11:41:36;;;;;;;14.60;4.57;;;22.70;54.40;;;;;;5101358;28;20050;-78
2022/05/15 11:44:18;;;;;;;13.57;3.78;;;22.80;56.90;;;;;;5107185;28;20138;-78
2022/05/15 11:46:47;;;;;;;13.98;4.32;;;23.00;52.20;;;;;;5108749;28;20055;-78
2022/05/15 11:49:39;;;;;;;20.00;4.75;;;23.00;51.80;;;;;;5113007;28;20533;-78
2022/05/15 11:52:12;;;;;;;12.82;4.25;;;23.20;52.40;;;;;;5106003;28;20070;-78
2022/05/15 11:54:41;;;;;;;13.88;3.90;;;23.30;53.80;;;;;;5109228;28;20104;-78
2022/05/15 11:57:09;;;;;;;19.38;4.32;;;23.40;52.10;;;;;;5099559;28;20475;-78
2022/05/15 11:59:52;;;;;;;15.02;3.85;;;23.50;51.50;;;;;;5090985;28;20066;-78
2022/05/15 12:02:20;;;;;;;12.48;3.88;;;23.40;50.90;;;;;;5090337;28;20040;-78
2022/05/15 12:04:46;;;;;;;14.90;4.15;;;23.40;49.60;;;;;;5090937;28;20093;-78
2022/05/15 12:07:14;;;;;;;12.65;3.88;;;23.40;49.80;;;;;;5089257;28;20047;-77
2022/05/15 12:09:40;;;;;;;14.25;4.82;;;23.50;51.00;;;;;;5109868;28;20039;-79
2022/05/15 12:12:23;;;;;;;14.70;4.20;;;23.70;50.60;;;;;;5105704;28;20052;-78
2022/05/15 12:15:10;;;;;;;14.35;4.15;;;23.80;48.30;;;;;;5109083;28;20066;-78
2022/05/15 12:17:59;;;;;;;13.23;4.40;;;23.80;47.80;;;;;;5110612;28;20050;-79
2022/05/15 12:20:28;;;;;;;12.23;3.97;;;23.80;49.20;;;;;;5110961;28;20059;-78
2022/05/15 12:22:56;;;;;;;13.43;3.80;;;23.90;49.50;;;;;;5098440;28;20044;-78
2022/05/15 12:25:36;;;;;;;14.73;3.97;;;23.90;48.30;;;;;;5089819;28;20048;-78
2022/05/15 12:28:53;;;;;;;10.82;4.00;;;24.00;48.40;;;;;;5089700;28;20358;-78
2022/05/15 12:31:21;;;;;;;;;;;24.00;48.90;;;;;;5090312;28;20614;-78
2022/05/15 12:33:46;;;;;;;14.68;4.10;;;24.00;48.10;;;;;;5089331;28;20295;-79
2022/05/15 12:36:29;;;;;;;15.05;4.22;;;24.00;46.90;;;;;;5089320;28;20032;-78
2022/05/15 12:38:57;;;;;;;13.02;3.80;;;24.00;45.70;;;;;;5090406;28;20134;-78
2022/05/15 12:41:27;;;;;;;;;;;23.90;46.40;;;;;;5087821;28;20487;-79
2022/05/15 12:43:53;;;;;;;15.60;4.32;;;24.00;46.80;;;;;;5089137;28;20401;-81
2022/05/15 12:46:53;;;;;;;12.17;4.10;;;24.00;47.00;;;;;;5097938;28;20040;-81
2022/05/15 12:49:34;;;;;;;11.75;3.53;;;24.10;48.20;;;;;;5061393;28;20385;-81
2022/05/15 12:52:15;;;;;;;11.25;3.17;;;24.20;46.40;;;;;;5084702;28;20051;-81
2022/05/15 12:54:43;;;;;;;12.60;3.80;;;24.40;45.80;;;;;;5108321;28;20043;-81
2022/05/15 12:57:15;;;;;;;12.90;3.83;;;24.50;46.20;;;;;;5107614;28;20055;-80
2022/05/15 12:59:44;;;;;;;12.43;3.60;;;24.60;46.40;;;;;;5094717;28;20082;-78
2022/05/15 13:02:16;;;;;;;10.77;3.47;;;24.70;46.50;;;;;;5103352;28;20069;-73
2022/05/15 13:04:47;;;;;;;13.38;3.90;;;24.80;45.90;;;;;;5089186;28;20040;-73
2022/05/15 13:07:13;;;;;;;15.75;4.75;;;24.90;45.90;;;;;;5089351;28;20036;-76
2022/05/15 13:09:39;;;;;;;13.07;3.70;;;24.90;45.20;;;;;;5086780;28;20040;-74
2022/05/15 13:12:10;;;;;;;13.40;3.92;;;24.90;45.00;;;;;;5106442;28;20052;-73
2022/05/15 13:14:45;;;;;;;14.27;4.05;;;24.90;44.90;;;;;;5089837;28;20059;-75
2022/05/15 13:17:12;;;;;;;12.38;3.35;;;24.90;45.20;;;;;;5079389;28;20054;-74